createdAt,value
2023-04-18T05:03:22.919Z,650.00
2023-04-18T05:04:23.901Z,652.00
2023-04-18T05:05:22.860Z,652.00
2023-04-18T05:06:23.874Z,655.00
2023-04-18T05:07:23.914Z,653.00
2023-04-18T05:08:23.922Z,652.00
2023-04-18T05:09:22.962Z,648.00
2023-04-18T05:10:24.047Z,650.00
2023-04-18T05:11:24.029Z,655.00
2023-04-18T05:12:24.074Z,650.00
2023-04-18T05:13:24.100Z,650.00
2023-04-18T05:14:23.082Z,657.00
2023-04-18T05:15:23.141Z,656.00
2023-04-18T05:16:24.157Z,651.00
2023-04-18T05:17:24.200Z,624.00
2023-04-18T05:18:24.244Z,577.00
2023-04-18T05:19:23.212Z,580.00
2023-04-18T05:20:24.238Z,582.00
2023-04-18T05:21:24.277Z,585.00
2023-04-18T05:22:24.305Z,583.00
2023-04-18T05:23:23.363Z,582.00
2023-04-18T05:24:24.407Z,577.00
2023-04-18T05:25:24.486Z,580.00
2023-04-18T05:26:24.448Z,587.00
2023-04-18T05:27:24.474Z,613.00
2023-04-18T05:28:23.522Z,619.00
2023-04-18T05:29:24.571Z,615.00
2023-04-18T05:30:24.576Z,631.00
2023-04-18T05:31:23.720Z,627.00
2023-04-18T05:32:24.687Z,621.00
2023-04-18T05:33:24.676Z,624.00
2023-04-18T05:34:24.717Z,625.00
2023-04-18T05:35:24.782Z,630.00
2023-04-18T05:36:24.819Z,645.00
2023-04-18T05:37:24.843Z,663.00
2023-04-18T05:38:24.968Z,664.00
2023-04-18T05:39:23.923Z,681.00
2023-04-18T05:40:24.948Z,704.00
2023-04-18T05:41:24.954Z,705.00
2023-04-18T05:42:23.962Z,716.00
2023-04-18T05:43:24.978Z,725.00
2023-04-18T05:44:24.996Z,729.00
2023-04-18T05:45:25.023Z,736.00
2023-04-18T05:46:25.074Z,746.00
2023-04-18T05:47:25.107Z,985.00
2023-04-18T05:48:25.157Z,1050.00
2023-04-18T05:49:24.128Z,923.00
2023-04-18T05:50:24.244Z,913.00
2023-04-18T05:51:25.226Z,910.00
2023-04-18T05:52:25.250Z,930.00
2023-04-18T05:53:25.272Z,937.00
2023-04-18T05:54:25.328Z,959.00
2023-04-18T05:55:25.361Z,969.00
2023-04-18T05:56:24.355Z,975.00
2023-04-18T05:57:24.381Z,995.00
2023-04-18T05:58:25.388Z,1050.00
2023-04-18T05:59:24.418Z,1106.00
2023-04-18T06:00:25.441Z,1134.00
2023-04-18T06:01:24.483Z,1337.00
2023-04-18T06:02:24.777Z,1135.00
2023-04-18T06:03:25.769Z,732.00
2023-04-18T06:04:24.667Z,704.00
2023-04-18T06:05:25.702Z,647.00
2023-04-18T06:06:25.616Z,627.00
2023-04-18T06:07:24.612Z,610.00
2023-04-18T06:08:25.754Z,720.00
2023-04-18T06:09:25.651Z,786.00
2023-04-18T06:10:25.789Z,885.00
2023-04-18T06:11:25.825Z,907.00
2023-04-18T06:12:25.805Z,909.00
2023-04-18T06:13:25.790Z,937.00
2023-04-18T06:14:25.814Z,920.00
2023-04-18T06:15:25.852Z,924.00
2023-04-18T06:16:24.969Z,968.00
2023-04-18T06:17:24.945Z,969.00
2023-04-18T06:18:25.908Z,974.00
2023-04-18T06:19:24.915Z,985.00
2023-04-18T06:20:24.930Z,985.00
2023-04-18T06:21:25.981Z,1054.00
2023-04-18T06:22:25.214Z,1040.00
2023-04-18T06:23:25.074Z,1037.00
2023-04-18T06:24:26.108Z,1040.00
2023-04-18T06:25:26.176Z,1043.00
2023-04-18T06:26:25.219Z,1050.00
2023-04-18T06:27:31.634Z,1054.00
2023-04-18T06:28:26.242Z,1059.00
2023-04-18T06:29:26.254Z,1057.00
2023-04-18T06:30:26.231Z,1078.00
2023-04-18T06:31:25.273Z,1079.00
2023-04-18T06:32:26.286Z,1082.00
2023-04-18T06:33:25.235Z,1092.00
2023-04-18T06:34:25.214Z,1091.00
2023-04-18T06:35:26.634Z,1089.00
2023-04-18T06:36:25.204Z,1092.00
2023-04-18T06:37:25.230Z,1092.00
2023-04-18T06:38:25.206Z,1099.00
2023-04-18T06:39:26.216Z,1102.00
2023-04-18T06:40:25.283Z,1103.00
2023-04-18T06:41:26.296Z,1113.00
2023-04-18T06:42:26.359Z,1127.00
2023-04-18T06:43:25.397Z,1143.00
2023-04-18T06:44:26.444Z,1163.00
2023-04-18T06:45:25.666Z,1172.00
2023-04-18T06:46:26.579Z,1170.00
2023-04-18T06:47:26.618Z,1178.00
2023-04-18T06:48:26.608Z,1185.00
2023-04-18T06:49:26.699Z,1191.00
2023-04-18T06:50:25.669Z,1195.00
2023-04-18T06:51:25.714Z,1196.00
2023-04-18T06:52:26.768Z,1200.00
2023-04-18T06:53:25.895Z,1203.00
2023-04-18T06:54:26.873Z,1194.00
2023-04-18T06:55:27.348Z,1211.00
2023-04-18T06:56:25.908Z,1243.00
2023-04-18T06:57:26.948Z,1235.00
2023-04-18T06:58:26.995Z,1225.00
2023-04-18T06:59:26.003Z,1176.00
2023-04-18T07:00:26.032Z,1230.00
2023-04-18T07:01:27.136Z,1221.00
2023-04-18T07:02:27.251Z,1218.00
2023-04-18T07:03:27.343Z,1223.00
2023-04-18T07:04:26.383Z,1245.00
2023-04-18T07:05:27.274Z,1264.00
2023-04-18T07:06:27.292Z,1259.00
2023-04-18T07:07:27.308Z,1256.00
2023-04-18T07:08:27.369Z,1242.00
2023-04-18T07:09:27.400Z,1235.00
2023-04-18T07:10:26.661Z,1244.00
2023-04-18T07:11:27.431Z,1245.00
2023-04-18T07:12:27.460Z,1247.00
2023-04-18T07:13:26.577Z,1271.00
2023-04-18T07:14:27.516Z,1278.00
2023-04-18T07:15:27.562Z,1281.00
2023-04-18T07:16:27.568Z,1283.00
2023-04-18T07:17:27.591Z,1289.00
2023-04-18T07:18:37.404Z,1289.00
2023-04-18T07:19:27.583Z,1288.00
2023-04-18T07:20:26.600Z,1288.00
2023-04-18T07:21:27.594Z,1282.00
2023-04-18T07:22:27.553Z,1272.00
2023-04-18T07:23:26.542Z,1262.00
2023-04-18T07:24:27.530Z,1241.00
2023-04-18T07:25:26.532Z,1255.00
2023-04-18T07:26:26.629Z,1267.00
2023-04-18T07:27:27.516Z,1269.00
2023-04-18T07:28:26.512Z,1263.00
2023-04-18T07:29:27.508Z,1268.00
2023-04-18T07:30:27.515Z,1268.00
2023-04-18T07:31:27.608Z,1273.00
2023-04-18T07:32:27.512Z,1274.00
2023-04-18T07:33:27.477Z,1281.00
2023-04-18T07:34:26.495Z,1293.00
2023-04-18T07:35:27.474Z,1291.00
2023-04-18T07:36:26.475Z,1295.00
2023-04-18T07:37:26.465Z,1307.00
2023-04-18T07:38:27.446Z,1314.00
2023-04-18T07:39:26.450Z,1323.00
2023-04-18T07:40:27.485Z,1333.00
2023-04-18T07:41:26.414Z,1337.00
2023-04-18T07:42:26.476Z,1341.00
2023-04-18T07:43:27.436Z,1343.00
2023-04-18T07:44:26.418Z,1344.00
2023-04-18T07:45:26.455Z,1362.00
2023-04-18T07:46:27.564Z,1373.00
2023-04-18T07:47:28.269Z,1407.00
2023-04-18T07:48:26.480Z,1358.00
2023-04-18T07:49:26.468Z,1365.00
2023-04-18T07:50:26.985Z,1375.00
2023-04-18T07:51:27.457Z,1388.00
2023-04-18T07:52:27.458Z,1426.00
2023-04-18T07:53:27.424Z,1445.00
2023-04-18T07:54:26.516Z,1463.00
2023-04-18T07:55:27.431Z,1462.00
2023-04-18T07:56:26.420Z,1488.00
2023-04-18T07:57:26.403Z,1500.00
2023-04-18T07:58:26.680Z,1529.00
2023-04-18T07:59:27.408Z,1540.00
2023-04-18T08:00:26.500Z,1550.00
2023-04-18T08:01:27.386Z,1569.00
2023-04-18T08:02:26.518Z,1592.00
2023-04-18T08:03:26.606Z,1595.00
2023-04-18T08:04:29.980Z,1603.00
2023-04-18T08:05:26.359Z,1616.00
2023-04-18T08:06:27.331Z,1627.00
2023-04-18T08:07:26.323Z,1628.00
2023-04-18T08:08:27.319Z,1640.00
2023-04-18T08:09:26.336Z,1642.00
2023-04-18T08:10:27.387Z,1660.00
2023-04-18T08:11:26.302Z,1665.00
2023-04-18T08:12:26.338Z,1675.00
2023-04-18T08:13:27.298Z,1661.00
2023-04-18T08:14:27.334Z,1696.00
2023-04-18T08:15:27.290Z,1712.00
2023-04-18T08:16:26.316Z,1692.00
2023-04-18T08:17:26.304Z,1698.00
2023-04-18T08:18:27.259Z,1713.00
2023-04-18T08:19:27.266Z,1722.00
2023-04-18T08:20:27.284Z,1731.00
2023-04-18T08:21:26.243Z,1735.00
2023-04-18T08:22:27.239Z,1732.00
2023-04-18T08:23:26.249Z,1761.00
2023-04-18T08:24:26.252Z,1759.00
2023-04-18T08:25:27.245Z,1764.00
2023-04-18T08:26:27.214Z,1757.00
2023-04-18T08:27:27.216Z,1764.00
2023-04-18T08:28:26.200Z,1734.00
2023-04-18T08:29:26.220Z,1701.00
2023-04-18T08:30:26.217Z,1724.00
2023-04-18T08:31:26.225Z,1695.00
2023-04-18T08:32:27.228Z,1694.00
2023-04-18T08:33:27.166Z,1675.00
2023-04-18T08:34:26.150Z,1666.00
2023-04-18T08:35:27.186Z,1652.00
2023-04-18T08:36:27.149Z,1640.00
2023-04-18T08:37:26.168Z,1668.00
2023-04-18T08:38:27.139Z,1651.00
2023-04-18T08:39:27.116Z,1635.00
2023-04-18T08:40:27.115Z,1632.00
2023-04-18T08:41:27.426Z,1624.00
2023-04-18T08:42:27.141Z,1556.00
2023-04-18T08:43:26.107Z,1584.00
2023-04-18T08:44:27.089Z,1593.00
2023-04-18T08:45:26.087Z,1543.00
2023-04-18T08:46:27.314Z,1549.00
2023-04-18T08:47:26.095Z,1466.00
2023-04-18T08:48:27.113Z,1368.00
2023-04-18T08:49:26.050Z,995.00
2023-04-18T08:50:26.036Z,1070.00
2023-04-18T08:51:27.146Z,1073.00
2023-04-18T08:52:27.234Z,1029.00
2023-04-18T08:53:27.156Z,1032.00
2023-04-18T08:54:27.424Z,1041.00
2023-04-18T08:55:27.206Z,1084.00
2023-04-18T08:56:27.378Z,1209.00
2023-04-18T08:57:27.375Z,1223.00
2023-04-18T08:58:27.287Z,1249.00
2023-04-18T08:59:26.326Z,1269.00
2023-04-18T09:00:27.374Z,1296.00
2023-04-18T09:01:27.432Z,1312.00
2023-04-18T09:02:27.673Z,1350.00
2023-04-18T09:03:27.508Z,1337.00
2023-04-18T09:04:26.565Z,1379.00
2023-04-18T09:05:26.558Z,1391.00
2023-04-18T09:06:27.850Z,1404.00
2023-04-18T09:07:27.622Z,1413.00
2023-04-18T09:08:26.698Z,1446.00
2023-04-18T09:09:27.711Z,1477.00
2023-04-18T09:10:27.718Z,1555.00
2023-04-18T09:11:26.778Z,1549.00
2023-04-18T09:12:27.813Z,1557.00
2023-04-18T09:13:27.938Z,1597.00
2023-04-18T09:14:27.898Z,1612.00
2023-04-18T09:15:26.954Z,1646.00
2023-04-18T09:16:28.168Z,1640.00
2023-04-18T09:17:27.978Z,1635.00
2023-04-18T09:18:26.979Z,1638.00
2023-04-18T09:19:27.996Z,1610.00
2023-04-18T09:20:27.017Z,1609.00
2023-04-18T09:21:28.081Z,1615.00
2023-04-18T09:22:28.100Z,1609.00
2023-04-18T09:23:28.156Z,1581.00
2023-04-18T09:24:27.219Z,1566.00
2023-04-18T09:25:28.258Z,1559.00
2023-04-18T09:26:27.282Z,1551.00
2023-04-18T09:27:28.341Z,1551.00
2023-04-18T09:28:27.364Z,1537.00
2023-04-18T09:29:28.450Z,1534.00
2023-04-18T09:30:28.436Z,1540.00
2023-04-18T09:31:27.478Z,1538.00
2023-04-18T09:32:28.514Z,1545.00
2023-04-18T09:33:28.485Z,1544.00
2023-04-18T09:34:28.643Z,1537.00
2023-04-18T09:35:28.550Z,1555.00
2023-04-18T09:36:28.646Z,1543.00
2023-04-18T09:37:28.610Z,1541.00
2023-04-18T09:38:27.684Z,1530.00
2023-04-18T09:39:28.686Z,1546.00
2023-04-18T09:40:28.737Z,1560.00
2023-04-18T09:41:28.761Z,1572.00
2023-04-18T09:42:29.080Z,1582.00
2023-04-18T09:43:27.789Z,1590.00
2023-04-18T09:44:27.847Z,1584.00
2023-04-18T09:45:27.859Z,1574.00
2023-04-18T09:46:29.039Z,1530.00
2023-04-18T09:47:28.917Z,1401.00
2023-04-18T09:48:28.877Z,1483.00
2023-04-18T09:49:28.929Z,1467.00
2023-04-18T09:50:29.006Z,1449.00
2023-04-18T09:51:29.417Z,1488.00
2023-04-18T09:52:29.036Z,1485.00
2023-04-18T09:53:29.043Z,1486.00
2023-04-18T09:54:28.073Z,1497.00
2023-04-18T09:55:28.093Z,1499.00
2023-04-18T09:56:29.128Z,1507.00
2023-04-18T09:57:29.105Z,1516.00
2023-04-18T09:58:28.123Z,1529.00
2023-04-18T09:59:29.183Z,1521.00
2023-04-18T10:00:29.192Z,1512.00
2023-04-18T10:01:29.223Z,1512.00
2023-04-18T10:02:28.249Z,1517.00
2023-04-18T10:03:28.284Z,1509.00
2023-04-18T10:04:29.306Z,1514.00
2023-04-18T10:05:28.315Z,1539.00
2023-04-18T10:06:29.342Z,1530.00
2023-04-18T10:07:29.298Z,1506.00
2023-04-18T10:08:29.347Z,1510.00
2023-04-18T10:09:29.338Z,1511.00
2023-04-18T10:10:29.375Z,1519.00
2023-04-18T10:11:29.421Z,1509.00
2023-04-18T10:12:28.420Z,1509.00
2023-04-18T10:13:29.453Z,1510.00
2023-04-18T10:14:29.496Z,1500.00
2023-04-18T10:15:29.490Z,1502.00
2023-04-18T10:16:29.709Z,1503.00
2023-04-18T10:17:29.557Z,1499.00
2023-04-18T10:18:29.627Z,1497.00
2023-04-18T10:19:28.586Z,1503.00
2023-04-18T10:20:29.616Z,1498.00
2023-04-18T10:21:29.632Z,1500.00
2023-04-18T10:22:29.792Z,1514.00
2023-04-18T10:23:29.619Z,1508.00
2023-04-18T10:24:28.629Z,1505.00
2023-04-18T10:25:29.659Z,1503.00
2023-04-18T10:26:28.664Z,1495.00
2023-04-18T10:27:29.685Z,1499.00
2023-04-18T10:28:29.679Z,1520.00
2023-04-18T10:29:29.700Z,1507.00
2023-04-18T10:30:28.722Z,1489.00
2023-04-18T10:31:28.775Z,1498.00
2023-04-18T10:32:28.771Z,1506.00
2023-04-18T10:33:31.878Z,1486.00
2023-04-18T10:34:29.742Z,1486.00
2023-04-18T10:35:29.411Z,1501.00
2023-04-18T10:36:28.950Z,1509.00
2023-04-18T10:37:29.712Z,1489.00
2023-04-18T10:38:29.737Z,1503.00
2023-04-18T10:39:29.715Z,1483.00
2023-04-18T10:40:29.689Z,1475.00
2023-04-18T10:41:28.690Z,1489.00
2023-04-18T10:42:29.998Z,1493.00
2023-04-18T10:43:28.674Z,1487.00
2023-04-18T10:44:28.666Z,1489.00
2023-04-18T10:45:29.724Z,1491.00
2023-04-18T10:46:32.181Z,1489.00
2023-04-18T10:47:28.986Z,1491.00
2023-04-18T10:48:29.743Z,1486.00
2023-04-18T10:49:32.023Z,1489.00
2023-04-18T10:50:28.618Z,1487.00
2023-04-18T10:51:28.611Z,1487.00
2023-04-18T10:52:28.626Z,1486.00
2023-04-18T10:53:29.608Z,1490.00
2023-04-18T10:54:28.762Z,1486.00
2023-04-18T10:55:28.595Z,1489.00
2023-04-18T10:56:29.601Z,1486.00
2023-04-18T10:57:29.586Z,1488.00
2023-04-18T10:58:29.574Z,1485.00
2023-04-18T10:59:29.574Z,1483.00
2023-04-18T11:00:29.573Z,1482.00
2023-04-18T11:01:31.771Z,1482.00
2023-04-18T11:02:29.631Z,1481.00
2023-04-18T11:03:29.652Z,1478.00
2023-04-18T11:04:29.566Z,1475.00
2023-04-18T11:05:28.525Z,1476.00
2023-04-18T11:06:29.522Z,1471.00
2023-04-18T11:07:30.061Z,1476.00
2023-04-18T11:08:29.499Z,1476.00
2023-04-18T11:09:29.511Z,1473.00
2023-04-18T11:10:29.667Z,1475.00
2023-04-18T11:11:28.546Z,1475.00
2023-04-18T11:12:29.501Z,1474.00
2023-04-18T11:13:28.554Z,1476.00
2023-04-18T11:14:29.455Z,1473.00
2023-04-18T11:15:31.081Z,1473.00
2023-04-18T11:16:29.484Z,1471.00
2023-04-18T11:17:29.447Z,1472.00
2023-04-18T11:18:29.441Z,1472.00
2023-04-18T11:19:29.445Z,1474.00
2023-04-18T11:20:29.468Z,1474.00
2023-04-18T11:21:30.435Z,1474.00
2023-04-18T11:22:29.422Z,1475.00
2023-04-18T11:23:28.425Z,1472.00
2023-04-18T11:24:29.456Z,1470.00
2023-04-18T11:25:29.518Z,1467.00
2023-04-18T11:26:29.597Z,1470.00
2023-04-18T11:27:29.626Z,1467.00
2023-04-18T11:28:28.684Z,1468.00
2023-04-18T11:29:28.708Z,1467.00
2023-04-18T11:30:29.734Z,1467.00
2023-04-18T11:31:29.854Z,1468.00
2023-04-18T11:32:29.000Z,1467.00
2023-04-18T11:33:28.899Z,1462.00
2023-04-18T11:34:29.956Z,1469.00
2023-04-18T11:35:28.989Z,1472.00
2023-04-18T11:36:30.042Z,1469.00
2023-04-18T11:37:29.463Z,1465.00
2023-04-18T11:38:30.132Z,1468.00
2023-04-18T11:39:29.179Z,1463.00
2023-04-18T11:40:30.207Z,1464.00
2023-04-18T11:41:29.269Z,1463.00
2023-04-18T11:42:30.473Z,1466.00
2023-04-18T11:43:30.357Z,1463.00
2023-04-18T11:44:30.393Z,1460.00
2023-04-18T11:45:29.454Z,1463.00
2023-04-18T11:46:29.628Z,1467.00
2023-04-18T11:47:29.573Z,1466.00
2023-04-18T11:48:30.549Z,1468.00
2023-04-18T11:49:29.590Z,1467.00
2023-04-18T11:50:30.618Z,1471.00
2023-04-18T11:51:29.689Z,1472.00
2023-04-18T11:52:30.697Z,1471.00
2023-04-18T11:53:29.718Z,1471.00
2023-04-18T11:54:30.759Z,1463.00
2023-04-18T11:55:29.835Z,1460.00
2023-04-18T11:56:30.870Z,1459.00
2023-04-18T11:57:29.944Z,1455.00
2023-04-18T11:58:31.011Z,1456.00
2023-04-18T11:59:30.004Z,1454.00
2023-04-18T12:00:30.045Z,1459.00
2023-04-18T12:01:30.095Z,1459.00
2023-04-18T12:02:30.246Z,1454.00
2023-04-18T12:03:30.515Z,1456.00
2023-04-18T12:04:30.386Z,1459.00
2023-04-18T12:05:31.780Z,1461.00
2023-04-18T12:06:30.362Z,1460.00
2023-04-18T12:07:30.397Z,1461.00
2023-04-18T12:08:31.522Z,1466.00
2023-04-18T12:09:31.475Z,1472.00
2023-04-18T12:10:30.512Z,1469.00
2023-04-18T12:11:31.568Z,1476.00
2023-04-18T12:12:30.623Z,1480.00
2023-04-18T12:13:30.662Z,1483.00
2023-04-18T12:14:31.784Z,1480.00
2023-04-18T12:15:30.765Z,1482.00
2023-04-18T12:16:30.884Z,1485.00
2023-04-18T12:17:30.899Z,1492.00
2023-04-18T12:18:30.929Z,1491.00
2023-04-18T12:19:31.972Z,1492.00
2023-04-18T12:20:31.018Z,1490.00
2023-04-18T12:21:32.059Z,1484.00
2023-04-18T12:22:32.125Z,1485.00
2023-04-18T12:23:31.173Z,1481.00
2023-04-18T12:24:32.375Z,1477.00
2023-04-18T12:25:31.271Z,1478.00
2023-04-18T12:26:31.337Z,1474.00
2023-04-18T12:27:32.368Z,1476.00
2023-04-18T12:28:32.406Z,1478.00
2023-04-18T12:29:32.459Z,1476.00
2023-04-18T12:30:31.643Z,1478.00
2023-04-18T12:31:32.533Z,1481.00
2023-04-18T12:32:32.492Z,1474.00
2023-04-18T12:33:32.592Z,1473.00
2023-04-18T12:34:31.616Z,1472.00
2023-04-18T12:35:32.683Z,1473.00
2023-04-18T12:36:32.682Z,1469.00
2023-04-18T12:37:32.721Z,1467.00
2023-04-18T12:38:32.762Z,1470.00
2023-04-18T12:39:32.802Z,1468.00
2023-04-18T12:40:32.833Z,1470.00
2023-04-18T12:41:32.882Z,1467.00
2023-04-18T12:42:31.947Z,1466.00
2023-04-18T12:43:32.968Z,1469.00
2023-04-18T12:44:32.994Z,1473.00
2023-04-18T12:45:33.138Z,1472.00
2023-04-18T12:46:33.121Z,1471.00
2023-04-18T12:47:33.187Z,1471.00
2023-04-18T12:48:32.166Z,1471.00
2023-04-18T12:49:32.219Z,1468.00
2023-04-18T12:50:32.310Z,1470.00
2023-04-18T12:51:32.314Z,1468.00
2023-04-18T12:52:33.339Z,1468.00
2023-04-18T12:53:32.391Z,1471.00
2023-04-18T12:54:33.426Z,1464.00
2023-04-18T12:55:33.471Z,1460.00
2023-04-18T12:56:32.467Z,1459.00
2023-04-18T12:57:32.522Z,1456.00
2023-04-18T12:58:33.641Z,1459.00
2023-04-18T12:59:33.595Z,1459.00
2023-04-18T13:00:32.798Z,1465.00
2023-04-18T13:01:33.790Z,1470.00
2023-04-18T13:02:32.849Z,1471.00
2023-04-18T13:03:34.135Z,1467.00
2023-04-18T13:04:34.136Z,1466.00
2023-04-18T13:05:34.330Z,1465.00
2023-04-18T13:06:33.947Z,1464.00
2023-04-18T13:07:32.993Z,1460.00
2023-04-18T13:08:34.048Z,1460.00
2023-04-18T13:09:34.087Z,1458.00
2023-04-18T13:10:33.123Z,1459.00
2023-04-18T13:11:34.197Z,1462.00
2023-04-18T13:12:34.224Z,1465.00
2023-04-18T13:13:35.167Z,1465.00
2023-04-18T13:14:34.320Z,1458.00
2023-04-18T13:15:34.353Z,1455.00
2023-04-18T13:16:34.433Z,1456.00
2023-04-18T13:17:33.595Z,1456.00
2023-04-18T13:18:33.541Z,1451.00
2023-04-18T13:19:34.552Z,1449.00
2023-04-18T13:20:34.615Z,1448.00
2023-04-18T13:21:34.636Z,1447.00
2023-04-18T13:22:33.666Z,1445.00
2023-04-18T13:23:33.719Z,1445.00
2023-04-18T13:24:34.780Z,1445.00
2023-04-18T13:25:34.798Z,1447.00
2023-04-18T13:26:33.824Z,1446.00
2023-04-18T13:27:33.831Z,1444.00
2023-04-18T13:28:34.878Z,1450.00
2023-04-18T13:29:34.879Z,1453.00
2023-04-18T13:30:33.916Z,1454.00
2023-04-18T13:31:34.993Z,1450.00
2023-04-18T13:32:34.063Z,1453.00
2023-04-18T13:33:34.122Z,1454.00
2023-04-18T13:34:35.137Z,1457.00
2023-04-18T13:35:35.173Z,1449.00
2023-04-18T13:36:35.188Z,1449.00
2023-04-18T13:37:35.240Z,1449.00
2023-04-18T13:38:34.268Z,1449.00
2023-04-18T13:39:35.310Z,1451.00
2023-04-18T13:40:35.348Z,1447.00
2023-04-18T13:41:34.398Z,1441.00
2023-04-18T13:42:35.458Z,1442.00
2023-04-18T13:43:35.481Z,1443.00
2023-04-18T13:44:35.537Z,1449.00
2023-04-18T13:45:35.646Z,1450.00
2023-04-18T13:46:35.629Z,1440.00
2023-04-18T13:47:34.663Z,1440.00
2023-04-18T13:48:35.719Z,1442.00
2023-04-18T13:49:35.887Z,1438.00
2023-04-18T13:50:35.796Z,1440.00
2023-04-18T13:51:35.852Z,1434.00
2023-04-18T13:52:34.907Z,1434.00
2023-04-18T13:53:35.930Z,1436.00
2023-04-18T13:54:34.989Z,1442.00
2023-04-18T13:55:35.028Z,1443.00
2023-04-18T13:56:36.099Z,1439.00
2023-04-18T13:57:36.118Z,1438.00
2023-04-18T13:58:35.131Z,1441.00
2023-04-18T13:59:36.160Z,1441.00
2023-04-18T14:00:36.164Z,1449.00
2023-04-18T14:01:36.256Z,1441.00
2023-04-18T14:02:36.347Z,1443.00
2023-04-18T14:03:36.447Z,1438.00
2023-04-18T14:04:35.364Z,1434.00
2023-04-18T14:05:35.385Z,1442.00
2023-04-18T14:06:35.228Z,1447.00
2023-04-18T14:07:36.213Z,1443.00
2023-04-18T14:08:36.218Z,1439.00
2023-04-18T14:09:35.201Z,1439.00
2023-04-18T14:10:36.176Z,1439.00
2023-04-18T14:11:36.186Z,1440.00
2023-04-18T14:12:36.173Z,1437.00
2023-04-18T14:13:35.167Z,1442.00
2023-04-18T14:14:36.183Z,1438.00
2023-04-18T14:15:36.172Z,1438.00
2023-04-18T14:16:36.174Z,1438.00
2023-04-18T14:17:36.167Z,1434.00
2023-04-18T14:18:36.146Z,1436.00
2023-04-18T14:19:35.143Z,1431.00
2023-04-18T14:20:36.113Z,1437.00
2023-04-18T14:21:35.156Z,1431.00
2023-04-18T14:22:36.099Z,1429.00
2023-04-18T14:23:36.110Z,1428.00
2023-04-18T14:24:35.107Z,1433.00
2023-04-18T14:25:35.084Z,1433.00
2023-04-18T14:26:36.086Z,1432.00
2023-04-18T14:27:36.075Z,1430.00
2023-04-18T14:28:35.056Z,1428.00
2023-04-18T14:29:36.049Z,1435.00
2023-04-18T14:30:36.063Z,1436.00
2023-04-18T14:31:35.078Z,1439.00
2023-04-18T14:32:35.072Z,1438.00
2023-04-18T14:33:36.023Z,1432.00
2023-04-18T14:34:36.627Z,1427.00
2023-04-18T14:35:35.020Z,1427.00
2023-04-18T14:36:35.009Z,1428.00
2023-04-18T14:37:35.099Z,1433.00
2023-04-18T14:38:36.044Z,1430.00
2023-04-18T14:39:35.089Z,1428.00
2023-04-18T14:40:35.099Z,1422.00
2023-04-18T14:41:36.130Z,1428.00
2023-04-18T14:42:36.138Z,1432.00
2023-04-18T14:43:36.152Z,1429.00
2023-04-18T14:44:36.153Z,1433.00
2023-04-18T14:45:35.169Z,1429.00
2023-04-18T14:46:36.189Z,1423.00
2023-04-18T14:47:35.242Z,1423.00
2023-04-18T14:48:35.268Z,1424.00
2023-04-18T14:49:35.256Z,1421.00
2023-04-18T14:50:36.297Z,1417.00
2023-04-18T14:51:35.317Z,1419.00
2023-04-18T14:52:35.361Z,1418.00
2023-04-18T14:53:35.485Z,1414.00
2023-04-18T14:54:36.440Z,1417.00
2023-04-18T14:55:36.454Z,1415.00
2023-04-18T14:56:35.526Z,1418.00
2023-04-18T14:57:35.526Z,1415.00
2023-04-18T14:58:36.581Z,1414.00
2023-04-18T14:59:35.615Z,1413.00
2023-04-18T15:00:36.657Z,1413.00
2023-04-18T15:01:36.755Z,1414.00
2023-04-18T15:02:36.971Z,1410.00
2023-04-18T15:03:36.973Z,1411.00
2023-04-18T15:04:36.930Z,1407.00
2023-04-18T15:05:35.874Z,1411.00
2023-04-18T15:06:36.928Z,1413.00
2023-04-18T15:07:35.950Z,1415.00
2023-04-18T15:08:37.014Z,1417.00
2023-04-18T15:09:37.073Z,1421.00
2023-04-18T15:10:36.076Z,1419.00
2023-04-18T15:11:36.140Z,1418.00
2023-04-18T15:12:37.176Z,1418.00
2023-04-18T15:13:37.227Z,1417.00
2023-04-18T15:14:36.273Z,1422.00
2023-04-18T15:15:36.329Z,1420.00
2023-04-18T15:16:36.390Z,1422.00
2023-04-18T15:17:37.504Z,1422.00
2023-04-18T15:18:36.484Z,1423.00
2023-04-18T15:19:36.515Z,1421.00
2023-04-18T15:20:36.575Z,1422.00
2023-04-18T15:21:37.621Z,1425.00
2023-04-18T15:22:37.683Z,1422.00
2023-04-18T15:23:37.754Z,1427.00
2023-04-18T15:24:36.794Z,1422.00
2023-04-18T15:25:37.865Z,1428.00
2023-04-18T15:26:36.886Z,1423.00
2023-04-18T15:27:36.943Z,1419.00
2023-04-18T15:28:36.978Z,1418.00
2023-04-18T15:29:37.010Z,1413.00
